Terminal Aerodrome Forecast
Issued by NWS

Current Version | Previous Version | Text Only | Print | Product List | Glossary On
Versions: 1 2 3 4 5 6 7 8 9 10 11 12 13 14 15
000
FTUS42 KTBW 171131
TAFPGD
TAF
KPGD 171131Z 1712/1812 05006KT P6SM FEW015 BKN250
     FM171400 04007KT P6SM SCT025 BKN150
     FM171900 05010KT P6SM VCSH SCT025 BKN040
     FM180100 04008KT P6SM SCT020 OVC040
     FM180900 03006KT 6SM BR SCT010 OVC040=

USA.gov is the U.S. government's official web portal to all federal, state and local government web resources and services.